Seahope II — 9HA2233 — position and weather

sailwx.info

Track history (hours):
 
Tides and Currents Weather Stations Pressure Air Temp Water Temp Dewpoint Dewpoint Depression Visibility Wind Speed Wind Dir Waves Ship Positions

Seahope II

Last reported at 2017-Jun-01 04:45 UTC. Time now 2017-Jun-24 05:23 UTC.
Position N 01°23' E 104°26'.
Warning: this ship's position is 23 days out of date.

Length 190 m; draft 11 m.

Type: Cargo ship. MMSI: 248185000.

Date/timePositionNaut miles runAvg speedWind from/ knotsBaromVisibWave heightAir tempDewpointWater temp
2017-Jun-01 04:45N 01°23' E 104°26'2612.4
2017-Jun-01 02:39N 01°15' E 104°01'4 0.3
2017-May-31 13:57N 01°17' E 103°57'0 0.1
2017-May-31 13:15N 01°16' E 103°57'0 0.0
2017-May-31 13:00N 01°16' E 103°57'0 0.1
2017-May-31 12:30N 01°16' E 103°57'0 0.1
2017-May-31 11:57N 01°17' E 103°57'0 0.3
2017-May-31 11:27N 01°17' E 103°57'0 0.1
2017-May-31 10:57N 01°17' E 103°57'0 0.1
2017-May-31 10:30N 01°17' E 103°57'0 0.0
2017-May-31 09:57N 01°17' E 103°57'0 0.1
2017-May-31 09:23N 01°17' E 103°57'0 0.2
2017-May-31 08:56N 01°17' E 103°57'0 0.3
2017-May-31 08:29N 01°17' E 103°57'0 0.4
2017-May-31 08:00N 01°16' E 103°57'1 2.0
2017-May-31 07:26N 01°15' E 103°58'3 6.0
2017-May-31 07:00N 01°14' E 103°56'4 8.1
2017-May-31 06:30N 01°12' E 103°52'4 8.8
2017-May-31 06:00N 01°10' E 103°48'4 8.4
2017-May-31 05:30N 01°07' E 103°45'4 8.2
2017-May-31 04:59N 01°04' E 103°42'5 9.8
2017-May-31 04:26N 01°04' E 103°37'510.8
2017-May-31 04:00N 01°07' E 103°33'610.8
2017-May-31 03:29N 01°09' E 103°28'7410.5
2017-May-30 20:29N 01°48' E 102°25'610.7
2017-May-30 19:54N 01°51' E 102°20'  
Track history (hours):
 
Tides and Currents Weather Stations Pressure Air Temp Water Temp Dewpoint Dewpoint Depression Visibility Wind Speed Wind Dir Waves Ship Positions

Seahope II

Last reported at 2017-Jun-01 04:45 UTC. Time now 2017-Jun-24 05:23 UTC.
Position N 01°23' E 104°26'.
Warning: this ship's position is 23 days out of date.

Length 190 m; draft 11 m.

Type: Cargo ship. MMSI: 248185000.

Date/timePositionNaut miles runAvg speedWind from/ knotsBaromVisibWave heightAir tempDewpointWater temp
2017-Jun-01 04:45N 01°23' E 104°26'2612.4
2017-Jun-01 02:39N 01°15' E 104°01'4 0.3
2017-May-31 13:57N 01°17' E 103°57'0 0.1
2017-May-31 13:15N 01°16' E 103°57'0 0.0
2017-May-31 13:00N 01°16' E 103°57'0 0.1
2017-May-31 12:30N 01°16' E 103°57'0 0.1
2017-May-31 11:57N 01°17' E 103°57'0 0.3
2017-May-31 11:27N 01°17' E 103°57'0 0.1
2017-May-31 10:57N 01°17' E 103°57'0 0.1
2017-May-31 10:30N 01°17' E 103°57'0 0.0
2017-May-31 09:57N 01°17' E 103°57'0 0.1
2017-May-31 09:23N 01°17' E 103°57'0 0.2
2017-May-31 08:56N 01°17' E 103°57'0 0.3
2017-May-31 08:29N 01°17' E 103°57'0 0.4
2017-May-31 08:00N 01°16' E 103°57'1 2.0
2017-May-31 07:26N 01°15' E 103°58'3 6.0
2017-May-31 07:00N 01°14' E 103°56'4 8.1
2017-May-31 06:30N 01°12' E 103°52'4 8.8
2017-May-31 06:00N 01°10' E 103°48'4 8.4
2017-May-31 05:30N 01°07' E 103°45'4 8.2
2017-May-31 04:59N 01°04' E 103°42'5 9.8
2017-May-31 04:26N 01°04' E 103°37'510.8
2017-May-31 04:00N 01°07' E 103°33'610.8
2017-May-31 03:29N 01°09' E 103°28'7410.5
2017-May-30 20:29N 01°48' E 102°25'610.7
2017-May-30 19:54N 01°51' E 102°20'  

Dump ship's entire track history